createdAt,value
2023-04-12T00:03:51.397Z,0.00
2023-04-12T00:08:51.036Z,0.00
2023-04-12T00:13:51.011Z,0.00
2023-04-12T00:18:50.940Z,0.00
2023-04-12T00:23:50.951Z,0.00
2023-04-12T00:28:50.796Z,0.00
2023-04-12T00:33:50.827Z,0.00
2023-04-12T00:38:50.634Z,0.00
2023-04-12T00:43:53.615Z,0.00
2023-04-12T00:48:50.698Z,0.00
2023-04-12T00:53:50.526Z,0.00
2023-04-12T00:58:50.401Z,0.00
2023-04-12T01:03:59.304Z,0.00
2023-04-12T01:08:57.726Z,0.00
2023-04-12T01:13:58.359Z,0.00
2023-04-12T01:18:50.183Z,0.00
2023-04-12T01:23:50.208Z,0.00
2023-04-12T01:28:50.022Z,0.00
2023-04-12T01:33:50.024Z,0.00
2023-04-12T01:38:49.891Z,0.00
2023-04-12T01:43:52.924Z,0.00
2023-04-12T01:48:49.819Z,0.00
2023-04-12T01:53:49.688Z,0.00
2023-04-12T01:58:49.619Z,0.00
2023-04-12T02:03:50.223Z,0.00
2023-04-12T02:08:49.512Z,0.00
2023-04-12T02:13:49.440Z,0.00
2023-04-12T02:18:49.380Z,0.00
2023-04-12T02:23:49.329Z,0.00
2023-04-12T02:28:49.337Z,0.00
2023-04-12T02:33:49.242Z,0.00
2023-04-12T02:38:49.162Z,0.00
2023-04-12T02:43:52.069Z,0.00
2023-04-12T02:48:48.950Z,0.00
2023-04-12T02:53:48.954Z,0.00
2023-04-12T02:58:48.845Z,0.00
2023-04-12T03:03:48.954Z,0.00
2023-04-12T03:08:48.684Z,0.00
2023-04-12T03:13:48.704Z,0.00
2023-04-12T03:18:48.627Z,0.00
2023-04-12T03:23:48.496Z,0.00
2023-04-12T03:28:48.407Z,0.00
2023-04-12T03:33:48.460Z,0.00
2023-04-12T03:38:48.259Z,0.00
2023-04-12T03:43:51.336Z,0.00
2023-04-12T03:48:48.204Z,0.00
2023-04-12T03:53:48.103Z,4.00
2023-04-12T03:58:48.029Z,0.00
2023-04-12T04:03:48.153Z,4.00
2023-04-12T04:08:47.912Z,8.00
2023-04-12T04:13:47.875Z,20.00
2023-04-12T04:18:47.785Z,40.00
2023-04-12T04:23:47.863Z,88.00
2023-04-12T04:28:47.646Z,164.00
2023-04-12T04:33:47.722Z,268.00
2023-04-12T04:38:47.529Z,368.00
2023-04-12T04:43:50.649Z,444.00
2023-04-12T04:48:47.402Z,468.00
2023-04-12T04:53:47.333Z,672.00
2023-04-12T04:58:47.247Z,860.00
2023-04-12T05:03:47.298Z,840.00
2023-04-12T05:08:47.132Z,964.00
2023-04-12T05:13:47.097Z,1284.00
2023-04-12T05:18:47.007Z,1264.00
2023-04-12T05:23:46.908Z,1272.00
2023-04-12T05:28:46.833Z,1336.00
2023-04-12T05:33:46.847Z,2032.00
2023-04-12T05:38:46.730Z,2764.00
2023-04-12T05:43:49.688Z,3672.00
2023-04-12T05:48:54.588Z,3988.00
2023-04-12T05:53:54.007Z,4044.00
2023-04-12T05:58:46.462Z,4676.00
2023-04-12T06:03:46.551Z,5672.00
2023-04-12T06:08:46.453Z,7580.00
2023-04-12T06:13:46.248Z,13408.00
2023-04-12T06:18:46.398Z,10412.00
2023-04-12T06:23:46.115Z,11984.00
2023-04-12T06:28:46.205Z,12372.00
2023-04-12T06:33:45.959Z,9016.00
2023-04-12T06:38:46.833Z,8692.00
2023-04-12T06:43:48.846Z,9184.00
2023-04-12T06:48:45.764Z,9316.00
2023-04-12T06:53:46.030Z,11768.00
2023-04-12T06:58:45.727Z,28640.00
2023-04-12T07:03:45.654Z,23904.00
2023-04-12T07:08:45.500Z,25088.00
2023-04-12T07:13:45.522Z,23264.00
2023-04-12T07:18:45.367Z,21504.00
2023-04-12T07:23:45.343Z,19616.00
2023-04-12T07:28:45.285Z,16576.00
2023-04-12T07:33:45.266Z,16672.00
2023-04-12T07:38:45.141Z,17536.00
2023-04-12T07:43:49.085Z,19936.00
2023-04-12T07:48:44.980Z,17440.00
2023-04-12T07:53:44.939Z,20896.00
2023-04-12T07:58:44.814Z,24288.00
2023-04-12T08:03:44.936Z,14504.00
2023-04-12T08:08:44.674Z,12364.00
2023-04-12T08:13:44.648Z,11936.00
2023-04-12T08:18:44.539Z,12048.00
2023-04-12T08:23:44.525Z,12280.00
2023-04-12T08:28:44.479Z,12444.00
2023-04-12T08:33:44.402Z,12324.00
2023-04-12T08:38:48.746Z,12268.00
2023-04-12T08:43:47.366Z,12596.00
2023-04-12T08:48:44.173Z,12756.00
2023-04-12T08:53:44.788Z,12556.00
2023-04-12T08:58:44.022Z,12480.00
2023-04-12T09:03:44.364Z,11872.00
2023-04-12T09:08:43.895Z,12032.00
2023-04-12T09:13:44.070Z,12236.00
2023-04-12T09:18:43.749Z,11220.00
2023-04-12T09:23:43.779Z,12020.00
2023-04-12T09:28:43.734Z,13032.00
2023-04-12T09:33:43.583Z,13720.00
2023-04-12T09:38:43.584Z,14560.00
2023-04-12T09:43:46.490Z,14728.00
2023-04-12T09:48:43.396Z,14080.00
2023-04-12T09:53:43.422Z,14308.00
2023-04-12T09:58:43.243Z,12036.00
2023-04-12T10:03:43.831Z,12660.00
2023-04-12T10:08:43.199Z,14556.00
2023-04-12T10:13:43.281Z,12784.00
2023-04-12T10:18:50.534Z,11972.00
2023-04-12T10:23:50.340Z,9672.00
2023-04-12T10:28:50.648Z,9632.00
2023-04-12T10:33:42.920Z,8440.00
2023-04-12T10:38:42.843Z,7900.00
2023-04-12T10:43:45.721Z,7252.00
2023-04-12T10:48:42.723Z,6964.00
2023-04-12T10:53:42.559Z,7684.00
2023-04-12T10:58:42.485Z,8416.00
2023-04-12T11:03:42.582Z,7952.00
2023-04-12T11:08:42.435Z,7068.00
2023-04-12T11:13:42.420Z,6880.00
2023-04-12T11:18:42.387Z,6036.00
2023-04-12T11:23:42.209Z,5300.00
2023-04-12T11:28:42.009Z,6068.00
2023-04-12T11:33:42.071Z,4928.00
2023-04-12T11:38:42.272Z,5712.00
2023-04-12T11:43:44.886Z,7948.00
2023-04-12T11:48:41.742Z,6288.00
2023-04-12T11:53:41.817Z,7816.00
2023-04-12T11:58:41.703Z,7180.00
2023-04-12T12:03:41.854Z,5624.00
2023-04-12T12:08:41.666Z,6072.00
2023-04-12T12:13:43.034Z,8112.00
2023-04-12T12:18:41.413Z,7028.00
2023-04-12T12:23:41.321Z,7584.00
2023-04-12T12:28:41.292Z,7032.00
2023-04-12T12:33:46.308Z,7220.00
2023-04-12T12:38:42.199Z,5476.00
2023-04-12T12:43:44.032Z,5688.00
2023-04-12T12:48:41.032Z,6416.00
2023-04-12T12:53:40.888Z,5372.00
2023-04-12T12:58:41.294Z,4424.00
2023-04-12T13:03:40.885Z,4696.00
2023-04-12T13:08:40.684Z,4824.00
2023-04-12T13:13:40.658Z,5260.00
2023-04-12T13:18:40.550Z,4880.00
2023-04-12T13:23:41.137Z,5240.00
2023-04-12T13:28:40.394Z,5496.00
2023-04-12T13:33:41.117Z,8448.00
2023-04-12T13:38:40.270Z,15936.00
2023-04-12T13:43:43.277Z,11224.00
2023-04-12T13:48:40.149Z,11444.00
2023-04-12T13:53:40.107Z,8976.00
2023-04-12T13:58:39.997Z,8596.00
2023-04-12T14:03:40.128Z,6552.00
2023-04-12T14:08:39.851Z,5444.00
2023-04-12T14:13:39.822Z,4220.00
2023-04-12T14:18:39.680Z,6004.00
2023-04-12T14:23:39.695Z,5308.00
2023-04-12T14:28:39.625Z,3840.00
2023-04-12T14:33:39.926Z,4052.00
2023-04-12T14:38:39.454Z,3688.00
2023-04-12T14:43:42.418Z,4932.00
2023-04-12T14:48:39.417Z,3720.00
2023-04-12T14:53:48.075Z,2836.00
2023-04-12T14:58:46.650Z,3440.00
2023-04-12T15:03:39.430Z,4268.00
2023-04-12T15:08:39.137Z,4148.00
2023-04-12T15:13:39.008Z,5444.00
2023-04-12T15:18:38.970Z,7520.00
2023-04-12T15:23:38.883Z,5532.00
2023-04-12T15:28:38.780Z,6080.00
2023-04-12T15:33:38.796Z,5800.00
2023-04-12T15:38:38.718Z,3476.00
2023-04-12T15:43:42.775Z,2316.00
2023-04-12T15:48:38.524Z,2036.00
2023-04-12T15:53:38.494Z,2168.00
2023-04-12T15:58:38.393Z,2032.00
2023-04-12T16:03:38.637Z,1992.00
2023-04-12T16:08:38.258Z,1752.00
2023-04-12T16:13:38.262Z,1496.00
2023-04-12T16:18:38.146Z,1524.00
2023-04-12T16:23:38.362Z,1256.00
2023-04-12T16:28:37.989Z,928.00
2023-04-12T16:33:37.977Z,1036.00
2023-04-12T16:38:37.861Z,1316.00
2023-04-12T16:43:42.677Z,1796.00
2023-04-12T16:48:37.742Z,1636.00
2023-04-12T16:53:37.823Z,1012.00
2023-04-12T16:58:37.609Z,784.00
2023-04-12T17:03:37.706Z,652.00
2023-04-12T17:08:37.476Z,448.00
2023-04-12T17:13:37.455Z,280.00
2023-04-12T17:18:37.465Z,428.00
2023-04-12T17:23:37.291Z,464.00
2023-04-12T17:28:37.158Z,192.00
2023-04-12T17:33:37.152Z,184.00
2023-04-12T17:38:37.129Z,160.00
2023-04-12T17:43:40.000Z,140.00
2023-04-12T17:48:36.913Z,132.00
2023-04-12T17:53:59.942Z,96.00
2023-04-12T17:58:36.780Z,48.00
2023-04-12T18:04:16.193Z,24.00
2023-04-12T18:08:36.627Z,24.00
2023-04-12T18:13:36.831Z,28.00
2023-04-12T18:18:36.491Z,16.00
2023-04-12T18:23:36.590Z,8.00
2023-04-12T18:28:37.485Z,4.00
2023-04-12T18:33:36.362Z,0.00
2023-04-12T18:38:36.338Z,0.00
2023-04-12T18:43:39.201Z,0.00
2023-04-12T18:48:36.109Z,0.00
2023-04-12T18:53:36.077Z,0.00
2023-04-12T18:58:53.919Z,0.00
2023-04-12T19:03:37.085Z,0.00
2023-04-12T19:08:35.859Z,0.00
2023-04-12T19:13:35.924Z,0.00
2023-04-12T19:18:35.771Z,0.00
2023-04-12T19:23:35.668Z,0.00
2023-04-12T19:28:35.566Z,0.00
2023-04-12T19:33:35.656Z,0.00
2023-04-12T19:38:43.400Z,0.00
2023-04-12T19:43:46.163Z,0.00
2023-04-12T19:48:43.125Z,0.00
2023-04-12T19:53:35.313Z,0.00
2023-04-12T19:58:35.177Z,0.00
2023-04-12T20:03:35.233Z,0.00
2023-04-12T20:08:35.048Z,0.00
2023-04-12T20:13:35.192Z,0.00
2023-04-12T20:18:35.066Z,0.00
2023-04-12T20:23:34.870Z,0.00
2023-04-12T20:28:34.818Z,0.00
2023-04-12T20:33:34.738Z,0.00
2023-04-12T20:38:34.648Z,0.00
2023-04-12T20:43:37.618Z,0.00
2023-04-12T20:48:34.552Z,0.00
2023-04-12T20:53:34.496Z,0.00
2023-04-12T20:58:34.411Z,0.00
2023-04-12T21:03:34.550Z,0.00
2023-04-12T21:08:34.217Z,0.00
2023-04-12T21:13:34.203Z,0.00
2023-04-12T21:18:34.110Z,0.00
2023-04-12T21:23:34.182Z,0.00
2023-04-12T21:28:34.014Z,0.00
2023-04-12T21:33:33.930Z,0.00
2023-04-12T21:38:34.144Z,0.00
2023-04-12T21:43:36.880Z,0.00
2023-04-12T21:48:33.883Z,0.00
2023-04-12T21:53:33.774Z,0.00
2023-04-12T21:58:33.735Z,0.00
2023-04-12T22:03:33.673Z,0.00
2023-04-12T22:08:33.516Z,0.00
2023-04-12T22:13:33.488Z,0.00
2023-04-12T22:18:33.393Z,0.00
2023-04-12T22:23:33.377Z,0.00
2023-04-12T22:28:33.204Z,0.00
2023-04-12T22:33:33.213Z,0.00
2023-04-12T22:38:33.189Z,0.00
2023-04-12T22:43:36.019Z,0.00
2023-04-12T22:48:32.924Z,0.00
2023-04-12T22:53:32.970Z,0.00
2023-04-12T22:58:32.806Z,0.00
2023-04-12T23:03:32.932Z,0.00
2023-04-12T23:08:32.677Z,0.00
2023-04-12T23:13:32.628Z,0.00
2023-04-12T23:18:32.506Z,0.00
2023-04-12T23:23:32.568Z,0.00
2023-04-12T23:28:32.374Z,0.00
2023-04-12T23:33:32.367Z,0.00
2023-04-12T23:38:32.765Z,0.00
2023-04-12T23:43:35.272Z,0.00
2023-04-12T23:48:32.157Z,0.00
2023-04-12T23:53:32.088Z,0.00
2023-04-12T23:58:32.041Z,0.00
